Liberty Island — HPUY — position and weather

sailwx.info

Track history (hours):
 
Tides and Currents Weather Stations Pressure Air Temp Water Temp Dewpoint Dewpoint Depression Visibility Wind Speed Wind Dir Waves Ship Positions

Liberty Island

Last reported at 2016-Jul-25 11:33 UTC. Time now 2016-Jul-25 12:00 UTC.
Position N 46°12' W 123°50'.

Length 178 m; draft 6.8 m.

Type: Cargo ship. MMSI: 355886000.

Date/timePositionNaut miles runAvg speedWind from/ knotsBaromVisibWave heightAir tempDewpointWater temp
2016-Jul-25 11:33N 46°12' W 123°50'0 0.0
2016-Jul-25 10:33N 46°12' W 123°50'0 0.0
2016-Jul-25 09:33N 46°12' W 123°50'0 0.2
2016-Jul-25 08:33N 46°12' W 123°50'0 0.0
2016-Jul-25 07:33N 46°12' W 123°50'0 0.0
2016-Jul-25 06:33N 46°12' W 123°50'0 0.0
2016-Jul-25 05:30N 46°12' W 123°50'0 0.0
2016-Jul-25 04:33N 46°12' W 123°50'0 0.0
2016-Jul-25 03:33N 46°12' W 123°50'0 0.0
2016-Jul-25 02:33N 46°12' W 123°50'0 0.2
2016-Jul-25 01:33N 46°12' W 123°50'0 0.1
2016-Jul-25 00:33N 46°12' W 123°50'0 0.0
2016-Jul-24 23:33N 46°12' W 123°50'0 0.0
2016-Jul-24 22:30N 46°12' W 123°50'0 0.1
2016-Jul-24 21:33N 46°12' W 123°50'0 0.0
2016-Jul-24 20:30N 46°12' W 123°50'0 0.2
2016-Jul-24 19:30N 46°12' W 123°50'0 0.1
2016-Jul-24 18:33N 46°12' W 123°50'0 0.0
2016-Jul-24 17:33N 46°12' W 123°50'0 0.0
2016-Jul-24 16:33N 46°12' W 123°50'0 0.0
2016-Jul-24 15:33N 46°12' W 123°50'0 0.0
2016-Jul-24 14:33N 46°12' W 123°50'0 0.0
2016-Jul-24 13:30N 46°12' W 123°50'0 0.2
2016-Jul-24 12:33N 46°12' W 123°50'0 0.1
2016-Jul-24 11:33N 46°12' W 123°49'0 0.0
2016-Jul-24 10:33N 46°12' W 123°49'0 0.1
2016-Jul-24 09:33N 46°12' W 123°50'0 0.0
2016-Jul-24 08:33N 46°12' W 123°50'0 0.2
2016-Jul-24 07:27N 46°12' W 123°50'0 0.1
2016-Jul-24 06:33N 46°12' W 123°50'0 0.0
2016-Jul-24 05:33N 46°12' W 123°50'0 0.0
2016-Jul-24 04:33N 46°12' W 123°50'0 0.0
2016-Jul-24 03:33N 46°12' W 123°50'0 0.0
2016-Jul-24 02:33N 46°12' W 123°50'0 0.0
2016-Jul-24 01:33N 46°12' W 123°50'0 0.2
2016-Jul-24 00:33N 46°12' W 123°50'0 0.1
2016-Jul-23 23:33N 46°12' W 123°50'0 0.0
2016-Jul-23 22:33N 46°12' W 123°50'0 0.0
2016-Jul-23 21:33N 46°12' W 123°50'0 0.0
2016-Jul-23 20:30N 46°12' W 123°50'0 0.1
2016-Jul-23 19:33N 46°12' W 123°50'0 0.2
2016-Jul-23 18:33N 46°12' W 123°50'0 0.0
2016-Jul-23 17:30N 46°12' W 123°50'0 0.0
2016-Jul-23 16:30N 46°12' W 123°50'0 0.0
2016-Jul-23 15:33N 46°12' W 123°50'0 0.0
2016-Jul-23 14:33N 46°12' W 123°50'0 0.0
2016-Jul-23 13:33N 46°12' W 123°50'0 0.0
2016-Jul-23 12:33N 46°12' W 123°50'0 0.2
2016-Jul-23 11:33N 46°12' W 123°50'0 0.1
2016-Jul-23 10:33N 46°12' W 123°49'0 0.0
2016-Jul-23 09:33N 46°12' W 123°49'0 0.1
2016-Jul-23 08:33N 46°12' W 123°50'0 0.0
2016-Jul-23 07:33N 46°12' W 123°50'0 0.2
2016-Jul-23 06:33N 46°12' W 123°50'0 0.0
2016-Jul-23 04:33N 46°12' W 123°50'0 0.0
2016-Jul-23 03:33N 46°12' W 123°50'0 0.0
2016-Jul-23 02:33N 46°12' W 123°50'0 0.0
2016-Jul-23 01:33N 46°12' W 123°50'0 0.1
2016-Jul-23 00:33N 46°12' W 123°50'0 0.1
2016-Jul-22 23:30N 46°12' W 123°50'0 0.0
2016-Jul-22 22:33N 46°12' W 123°50'0 0.0
2016-Jul-22 21:30N 46°12' W 123°50'0 0.0
2016-Jul-22 20:33N 46°12' W 123°50'0 0.0
2016-Jul-22 19:33N 46°12' W 123°50'0 0.2
2016-Jul-22 18:30N 46°12' W 123°50'0 0.0
2016-Jul-22 17:33N 46°12' W 123°50'0 0.0
2016-Jul-22 16:33N 46°12' W 123°50'0 0.0
2016-Jul-22 15:33N 46°12' W 123°50'0 0.1
2016-Jul-22 14:33N 46°12' W 123°50'0 0.0
2016-Jul-22 13:30N 46°12' W 123°50'2 2.1
2016-Jul-22 12:34N 46°11' W 123°53'9 9.3
2016-Jul-22 11:34N 46°15' W 124°05'9 9.0
2016-Jul-22 10:33N 46°12' W 124°17'4 3.8
2016-Jul-22 09:34N 46°12' W 124°22'7 7.5
2016-Jul-22 08:33N 46°11' W 124°33'1211.5
2016-Jul-22 07:33N 46°11' W 124°50'2612.9
2016-Jul-22 05:33N 46°11' W 125°27'1313.1
2016-Jul-22 04:33N 46°11' W 125°46'3313.3
2016-Jul-22 02:04N 46°11' W 126°34'  
Track history (hours):
 
Tides and Currents Weather Stations Pressure Air Temp Water Temp Dewpoint Dewpoint Depression Visibility Wind Speed Wind Dir Waves Ship Positions

Liberty Island

Last reported at 2016-Jul-25 11:33 UTC. Time now 2016-Jul-25 12:00 UTC.
Position N 46°12' W 123°50'.

Length 178 m; draft 6.8 m.

Type: Cargo ship. MMSI: 355886000.

Date/timePositionNaut miles runAvg speedWind from/ knotsBaromVisibWave heightAir tempDewpointWater temp
2016-Jul-25 11:33N 46°12' W 123°50'0 0.0
2016-Jul-25 10:33N 46°12' W 123°50'0 0.0
2016-Jul-25 09:33N 46°12' W 123°50'0 0.2
2016-Jul-25 08:33N 46°12' W 123°50'0 0.0
2016-Jul-25 07:33N 46°12' W 123°50'0 0.0
2016-Jul-25 06:33N 46°12' W 123°50'0 0.0
2016-Jul-25 05:30N 46°12' W 123°50'0 0.0
2016-Jul-25 04:33N 46°12' W 123°50'0 0.0
2016-Jul-25 03:33N 46°12' W 123°50'0 0.0
2016-Jul-25 02:33N 46°12' W 123°50'0 0.2
2016-Jul-25 01:33N 46°12' W 123°50'0 0.1
2016-Jul-25 00:33N 46°12' W 123°50'0 0.0
2016-Jul-24 23:33N 46°12' W 123°50'0 0.0
2016-Jul-24 22:30N 46°12' W 123°50'0 0.1
2016-Jul-24 21:33N 46°12' W 123°50'0 0.0
2016-Jul-24 20:30N 46°12' W 123°50'0 0.2
2016-Jul-24 19:30N 46°12' W 123°50'0 0.1
2016-Jul-24 18:33N 46°12' W 123°50'0 0.0
2016-Jul-24 17:33N 46°12' W 123°50'0 0.0
2016-Jul-24 16:33N 46°12' W 123°50'0 0.0
2016-Jul-24 15:33N 46°12' W 123°50'0 0.0
2016-Jul-24 14:33N 46°12' W 123°50'0 0.0
2016-Jul-24 13:30N 46°12' W 123°50'0 0.2
2016-Jul-24 12:33N 46°12' W 123°50'0 0.1
2016-Jul-24 11:33N 46°12' W 123°49'0 0.0
2016-Jul-24 10:33N 46°12' W 123°49'0 0.1
2016-Jul-24 09:33N 46°12' W 123°50'0 0.0
2016-Jul-24 08:33N 46°12' W 123°50'0 0.2
2016-Jul-24 07:27N 46°12' W 123°50'0 0.1
2016-Jul-24 06:33N 46°12' W 123°50'0 0.0
2016-Jul-24 05:33N 46°12' W 123°50'0 0.0
2016-Jul-24 04:33N 46°12' W 123°50'0 0.0
2016-Jul-24 03:33N 46°12' W 123°50'0 0.0
2016-Jul-24 02:33N 46°12' W 123°50'0 0.0
2016-Jul-24 01:33N 46°12' W 123°50'0 0.2
2016-Jul-24 00:33N 46°12' W 123°50'0 0.1
2016-Jul-23 23:33N 46°12' W 123°50'0 0.0
2016-Jul-23 22:33N 46°12' W 123°50'0 0.0
2016-Jul-23 21:33N 46°12' W 123°50'0 0.0
2016-Jul-23 20:30N 46°12' W 123°50'0 0.1
2016-Jul-23 19:33N 46°12' W 123°50'0 0.2
2016-Jul-23 18:33N 46°12' W 123°50'0 0.0
2016-Jul-23 17:30N 46°12' W 123°50'0 0.0
2016-Jul-23 16:30N 46°12' W 123°50'0 0.0
2016-Jul-23 15:33N 46°12' W 123°50'0 0.0
2016-Jul-23 14:33N 46°12' W 123°50'0 0.0
2016-Jul-23 13:33N 46°12' W 123°50'0 0.0
2016-Jul-23 12:33N 46°12' W 123°50'0 0.2
2016-Jul-23 11:33N 46°12' W 123°50'0 0.1
2016-Jul-23 10:33N 46°12' W 123°49'0 0.0
2016-Jul-23 09:33N 46°12' W 123°49'0 0.1
2016-Jul-23 08:33N 46°12' W 123°50'0 0.0
2016-Jul-23 07:33N 46°12' W 123°50'0 0.2
2016-Jul-23 06:33N 46°12' W 123°50'0 0.0
2016-Jul-23 04:33N 46°12' W 123°50'0 0.0
2016-Jul-23 03:33N 46°12' W 123°50'0 0.0
2016-Jul-23 02:33N 46°12' W 123°50'0 0.0
2016-Jul-23 01:33N 46°12' W 123°50'0 0.1
2016-Jul-23 00:33N 46°12' W 123°50'0 0.1
2016-Jul-22 23:30N 46°12' W 123°50'0 0.0
2016-Jul-22 22:33N 46°12' W 123°50'0 0.0
2016-Jul-22 21:30N 46°12' W 123°50'0 0.0
2016-Jul-22 20:33N 46°12' W 123°50'0 0.0
2016-Jul-22 19:33N 46°12' W 123°50'0 0.2
2016-Jul-22 18:30N 46°12' W 123°50'0 0.0
2016-Jul-22 17:33N 46°12' W 123°50'0 0.0
2016-Jul-22 16:33N 46°12' W 123°50'0 0.0
2016-Jul-22 15:33N 46°12' W 123°50'0 0.1
2016-Jul-22 14:33N 46°12' W 123°50'0 0.0
2016-Jul-22 13:30N 46°12' W 123°50'2 2.1
2016-Jul-22 12:34N 46°11' W 123°53'9 9.3
2016-Jul-22 11:34N 46°15' W 124°05'9 9.0
2016-Jul-22 10:33N 46°12' W 124°17'4 3.8
2016-Jul-22 09:34N 46°12' W 124°22'7 7.5
2016-Jul-22 08:33N 46°11' W 124°33'1211.5
2016-Jul-22 07:33N 46°11' W 124°50'2612.9
2016-Jul-22 05:33N 46°11' W 125°27'1313.1
2016-Jul-22 04:33N 46°11' W 125°46'3313.3
2016-Jul-22 02:04N 46°11' W 126°34'  

Dump ship's entire track history